Time,TemperatureF,DewpointF,PressureIn,WindDirection,WindDirectionDegrees,WindSpeedMPH,WindSpeedGustMPH,Humidity,HourlyPrecipIn,Conditions,Clouds,dailyrainin,SoftwareType,DateUTC
2013-07-17 00:01:00,62.0,47.0,30.22,South,180,2.0,2.0,58,0.00,,,0.00,,2013-07-17 06:01:00,
2013-07-17 00:11:00,62.0,47.0,30.22,South,180,1.0,4.0,58,0.00,,,0.00,,2013-07-17 06:11:00,
2013-07-17 00:32:00,61.0,47.0,30.23,South,180,0.0,2.0,59,0.00,,,0.00,,2013-07-17 06:32:00,
2013-07-17 00:52:00,60.0,47.0,30.23,South,180,0.0,2.0,61,0.00,,,0.00,,2013-07-17 06:52:00,
2013-07-17 01:01:00,59.0,46.0,30.23,South,180,1.0,3.0,61,0.00,,,0.00,,2013-07-17 07:01:00,
2013-07-17 01:11:00,59.0,46.0,30.22,SE,135,2.0,2.0,62,0.00,,,0.00,,2013-07-17 07:11:00,
2013-07-17 01:32:00,59.0,46.0,30.23,South,180,3.0,4.0,63,0.00,,,0.00,,2013-07-17 07:32:00,
2013-07-17 01:42:00,58.0,46.0,30.24,SE,135,1.0,2.0,64,0.00,,,0.00,,2013-07-17 07:42:00,
2013-07-17 01:52:00,58.0,46.0,30.24,South,180,2.0,3.0,65,0.00,,,0.00,,2013-07-17 07:52:00,
2013-07-17 02:01:00,57.0,45.0,30.24,SE,135,1.0,2.0,65,0.00,,,0.00,,2013-07-17 08:01:00,
2013-07-17 02:11:00,57.0,46.0,30.24,SE,135,2.0,3.0,66,0.00,,,0.00,,2013-07-17 08:11:00,
2013-07-17 02:21:00,57.0,46.0,30.24,South,180,1.0,2.0,67,0.00,,,0.00,,2013-07-17 08:21:00,
2013-07-17 02:32:00,57.0,46.0,30.24,SW,225,0.0,2.0,67,0.00,,,0.00,,2013-07-17 08:32:00,
2013-07-17 02:42:00,56.0,45.0,30.24,South,180,1.0,3.0,67,0.00,,,0.00,,2013-07-17 08:42:00,
2013-07-17 02:52:00,56.0,46.0,30.24,SE,135,2.0,4.0,68,0.00,,,0.00,,2013-07-17 08:52:00,
2013-07-17 03:01:00,57.0,47.0,30.24,South,180,2.0,4.0,68,0.00,,,0.00,,2013-07-17 09:01:00,
2013-07-17 03:11:00,57.0,46.0,30.24,West,270,1.0,4.0,67,0.00,,,0.00,,2013-07-17 09:11:00,
2013-07-17 03:22:00,57.0,46.0,30.24,South,180,1.0,2.0,67,0.00,,,0.00,,2013-07-17 09:22:00,
2013-07-17 03:32:00,56.0,46.0,30.24,South,180,1.0,2.0,68,0.00,,,0.00,,2013-07-17 09:32:00,
2013-07-17 03:43:00,56.0,46.0,30.25,SE,135,1.0,2.0,68,0.00,,,0.00,,2013-07-17 09:43:00,
2013-07-17 03:52:00,55.0,45.0,30.26,South,180,3.0,4.0,69,0.00,,,0.00,,2013-07-17 09:52:00,
2013-07-17 04:01:00,55.0,45.0,30.26,SE,135,2.0,4.0,70,0.00,,,0.00,,2013-07-17 10:01:00,
2013-07-17 04:11:00,55.0,45.0,30.26,South,180,1.0,2.0,70,0.00,,,0.00,,2013-07-17 10:11:00,
2013-07-17 04:22:00,55.0,45.0,30.27,South,180,2.0,3.0,70,0.00,,,0.00,,2013-07-17 10:22:00,
2013-07-17 04:32:00,55.0,46.0,30.27,SE,135,0.0,2.0,72,0.00,,,0.00,,2013-07-17 10:32:00,
2013-07-17 04:43:00,54.0,45.0,30.26,NE,45,1.0,2.0,72,0.00,,,0.00,,2013-07-17 10:43:00,
2013-07-17 04:52:00,54.0,45.0,30.25,SE,135,2.0,3.0,72,0.00,,,0.00,,2013-07-17 10:52:00,
2013-07-17 05:01:00,54.0,46.0,30.26,SE,135,0.0,2.0,73,0.00,,,0.00,,2013-07-17 11:01:00,
2013-07-17 05:11:00,54.0,46.0,30.26,SE,135,2.0,3.0,73,0.00,,,0.00,,2013-07-17 11:11:00,
2013-07-17 05:22:00,54.0,46.0,30.27,South,180,0.0,3.0,73,0.00,,,0.00,,2013-07-17 11:22:00,
2013-07-17 05:52:00,53.0,45.0,30.27,South,180,2.0,3.0,74,0.00,,,0.00,,2013-07-17 11:52:00,
2013-07-17 06:01:00,53.0,45.0,30.27,SE,135,2.0,3.0,75,0.00,,,0.00,,2013-07-17 12:01:00,
2013-07-17 06:11:00,53.0,46.0,30.26,South,180,2.0,2.0,76,0.00,,,0.00,,2013-07-17 12:11:00,
2013-07-17 06:32:00,54.0,46.0,30.25,SW,225,0.0,2.0,75,0.00,,,0.00,,2013-07-17 12:32:00,
2013-07-17 06:42:00,54.0,46.0,30.26,South,180,1.0,2.0,75,0.00,,,0.00,,2013-07-17 12:42:00,
2013-07-17 06:53:00,54.0,47.0,30.26,South,180,0.0,2.0,76,0.00,,,0.00,,2013-07-17 12:53:00,
2013-07-17 07:32:00,57.0,50.0,30.29,SE,135,0.0,2.0,76,0.00,,,0.00,,2013-07-17 13:32:00,
2013-07-17 07:52:00,60.0,51.0,30.29,SE,135,2.0,3.0,72,0.00,,,0.00,,2013-07-17 13:52:00,
2013-07-17 08:02:00,62.0,52.0,30.27,SE,135,2.0,4.0,69,0.00,,,0.00,,2013-07-17 14:02:00,
2013-07-17 08:11:00,62.0,52.0,30.29,West,270,2.0,4.0,69,0.00,,,0.00,,2013-07-17 14:11:00,
2013-07-17 08:22:00,64.0,53.0,30.29,SW,225,1.0,4.0,68,0.00,,,0.00,,2013-07-17 14:22:00,
2013-07-17 08:43:00,65.0,53.0,30.25,South,180,2.0,4.0,66,0.00,,,0.00,,2013-07-17 14:43:00,
2013-07-17 08:52:00,65.0,53.0,30.25,West,270,0.0,2.0,66,0.00,,,0.00,,2013-07-17 14:52:00,
2013-07-17 09:01:00,65.0,55.0,30.24,South,180,0.0,5.0,70,0.00,,,0.00,,2013-07-17 15:01:00,
2013-07-17 09:12:00,67.0,56.0,30.24,North,0,0.0,6.0,69,0.00,,,0.00,,2013-07-17 15:12:00,
2013-07-17 09:21:00,68.0,57.0,30.23,NW,315,1.0,4.0,68,0.00,,,0.00,,2013-07-17 15:21:00,
2013-07-17 12:52:00,84.0,59.0,30.20,NE,45,2.0,7.0,43,0.00,,,0.01,,2013-07-17 18:52:00,
2013-07-17 13:32:00,84.0,60.0,30.20,North,0,4.0,6.0,44,0.00,,,0.01,,2013-07-17 19:32:00,
2013-07-17 13:43:00,85.0,60.0,30.20,North,0,2.0,7.0,43,0.00,,,0.01,,2013-07-17 19:43:00,
2013-07-17 13:53:00,85.0,60.0,30.19,West,270,3.0,11.0,43,0.00,,,0.01,,2013-07-17 19:53:00,
2013-07-17 14:01:00,85.0,60.0,30.19,North,0,4.0,8.0,43,0.00,,,0.01,,2013-07-17 20:01:00,
2013-07-17 14:11:00,86.0,62.0,30.19,NE,45,1.0,8.0,44,0.00,,,0.01,,2013-07-17 20:11:00,
2013-07-17 14:33:00,86.0,60.0,30.19,West,270,4.0,8.0,42,0.00,,,0.01,,2013-07-17 20:33:00,
2013-07-17 14:43:00,87.0,62.0,30.19,North,0,1.0,8.0,44,0.00,,,0.01,,2013-07-17 20:43:00,
2013-07-17 14:52:00,87.0,61.0,30.17,North,0,1.0,4.0,42,0.00,,,0.01,,2013-07-17 20:52:00,
2013-07-17 15:01:00,87.0,60.0,30.17,ESE,113,1.0,3.0,41,0.00,,,0.01,,2013-07-17 21:01:00,
2013-07-17 15:31:00,86.0,62.0,30.16,West,270,4.0,8.0,44,0.00,,,0.01,,2013-07-17 21:31:00,
2013-07-17 15:42:00,82.0,64.0,30.19,North,0,8.0,15.0,55,0.01,,,0.02,,2013-07-17 21:42:00,
2013-07-17 16:01:00,79.0,65.0,30.19,SW,225,1.0,4.0,62,0.01,,,0.02,,2013-07-17 22:01:00,
2013-07-17 16:11:00,80.0,66.0,30.19,NW,315,2.0,3.0,63,0.01,,,0.02,,2013-07-17 22:11:00,
2013-07-17 16:43:00,83.0,62.0,30.18,NW,315,2.0,5.0,50,0.00,,,0.02,,2013-07-17 22:43:00,
2013-07-17 16:53:00,84.0,63.0,30.18,West,270,2.0,4.0,50,0.00,,,0.02,,2013-07-17 22:53:00,
2013-07-17 17:01:00,85.0,63.0,30.17,SE,135,2.0,4.0,48,0.00,,,0.02,,2013-07-17 23:01:00,
2013-07-17 17:11:00,85.0,64.0,30.17,NW,315,2.0,8.0,50,0.00,,,0.02,,2013-07-17 23:11:00,
2013-07-17 17:42:00,87.0,61.0,30.17,SW,225,8.0,17.0,42,0.00,,,0.02,,2013-07-17 23:42:00,
2013-07-17 17:52:00,87.0,61.0,30.17,West,270,6.0,9.0,42,0.00,,,0.02,,2013-07-17 23:52:00,
2013-07-17 18:11:00,87.0,59.0,30.17,West,270,8.0,21.0,39,0.00,,,0.02,,2013-07-18 00:11:00,
2013-07-17 19:01:00,86.0,54.0,30.19,NW,315,8.0,16.0,34,0.00,,,0.02,,2013-07-18 01:01:00,
2013-07-17 19:11:00,86.0,55.0,30.19,North,0,4.0,14.0,35,0.00,,,0.02,,2013-07-18 01:11:00,
2013-07-17 19:32:00,85.0,48.0,30.19,West,270,3.0,11.0,28,0.00,,,0.02,,2013-07-18 01:32:00,
2013-07-17 19:42:00,84.0,49.0,30.19,SW,225,4.0,9.0,30,0.00,,,0.02,,2013-07-18 01:42:00,
2013-07-17 19:53:00,84.0,50.0,30.20,WNW,293,5.0,11.0,31,0.00,,,0.02,,2013-07-18 01:53:00,
2013-07-17 20:01:00,83.0,50.0,30.21,South,180,4.0,11.0,32,0.00,,,0.02,,2013-07-18 02:01:00,
2013-07-17 20:11:00,83.0,49.0,30.21,NW,315,8.0,15.0,31,0.00,,,0.02,,2013-07-18 02:11:00,
2013-07-17 20:32:00,81.0,48.0,30.22,NW,315,6.0,11.0,32,0.00,,,0.02,,2013-07-18 02:32:00,
2013-07-17 20:52:00,80.0,47.0,30.22,SW,225,4.0,11.0,32,0.00,,,0.02,,2013-07-18 02:52:00,
2013-07-17 21:01:00,79.0,47.0,30.23,NW,315,7.0,14.0,32,0.00,,,0.02,,2013-07-18 03:01:00,
2013-07-17 21:11:00,78.0,47.0,30.24,SW,225,2.0,14.0,34,0.00,,,0.02,,2013-07-18 03:11:00,
2013-07-17 21:22:00,77.0,47.0,30.24,West,270,2.0,5.0,35,0.00,,,0.02,,2013-07-18 03:22:00,
2013-07-17 21:32:00,76.0,47.0,30.24,SW,225,2.0,6.0,36,0.00,,,0.02,,2013-07-18 03:32:00,
2013-07-17 21:43:00,75.0,48.0,30.25,South,180,1.0,3.0,38,0.00,,,0.02,,2013-07-18 03:43:00,
2013-07-17 21:52:00,74.0,47.0,30.25,South,180,1.0,2.0,38,0.00,,,0.02,,2013-07-18 03:52:00,
2013-07-17 22:01:00,73.0,47.0,30.25,SW,225,0.0,3.0,40,0.00,,,0.02,,2013-07-18 04:01:00,
2013-07-17 22:12:00,72.0,48.0,30.25,SE,135,0.0,2.0,42,0.00,,,0.02,,2013-07-18 04:12:00,
2013-07-17 22:22:00,71.0,47.0,30.27,South,180,2.0,2.0,42,0.00,,,0.02,,2013-07-18 04:22:00,
2013-07-17 22:32:00,70.0,46.0,30.27,SE,135,1.0,3.0,43,0.00,,,0.02,,2013-07-18 04:32:00,
2013-07-17 22:43:00,69.0,47.0,30.27,South,180,2.0,2.0,45,0.00,,,0.02,,2013-07-18 04:43:00,
2013-07-17 22:52:00,68.0,46.0,30.28,South,180,2.0,4.0,46,0.00,,,0.02,,2013-07-18 04:52:00,
2013-07-17 23:01:00,67.0,46.0,30.28,South,180,1.0,3.0,47,0.00,,,0.02,,2013-07-18 05:01:00,
2013-07-17 23:11:00,67.0,46.0,30.28,South,180,0.0,2.0,47,0.00,,,0.02,,2013-07-18 05:11:00,
2013-07-17 23:32:00,65.0,45.0,30.28,SE,135,0.0,2.0,49,0.00,,,0.02,,2013-07-18 05:32:00,
2013-07-17 23:52:00,64.0,47.0,30.29,SE,135,3.0,4.0,53,0.00,,,0.02,,2013-07-18 05:52:00,